sensor_id;sensor_type;location;lat;lon;timestamp;P1;durP1;ratioP1;P2;durP2;ratioP2
20611;SDS011;10465;42.686;23.364;2024-01-15T00:00:41;100.28;;;44.53;;
20611;SDS011;10465;42.686;23.364;2024-01-15T00:03:06;96.18;;;45.00;;
20611;SDS011;10465;42.686;23.364;2024-01-15T00:05:32;111.93;;;49.22;;
20611;SDS011;10465;42.686;23.364;2024-01-15T00:07:57;115.18;;;53.03;;
20611;SDS011;10465;42.686;23.364;2024-01-15T00:10:23;121.63;;;54.25;;
20611;SDS011;10465;42.686;23.364;2024-01-15T00:12:48;119.40;;;54.25;;
20611;SDS011;10465;42.686;23.364;2024-01-15T00:15:14;127.05;;;54.20;;
20611;SDS011;10465;42.686;23.364;2024-01-15T00:17:40;124.97;;;51.33;;
20611;SDS011;10465;42.686;23.364;2024-01-15T00:20:06;118.60;;;51.33;;
20611;SDS011;10465;42.686;23.364;2024-01-15T00:22:31;104.15;;;46.60;;
20611;SDS011;10465;42.686;23.364;2024-01-15T00:24:57;104.25;;;46.85;;
20611;SDS011;10465;42.686;23.364;2024-01-15T00:27:23;114.85;;;49.42;;
20611;SDS011;10465;42.686;23.364;2024-01-15T00:29:49;118.00;;;51.92;;
20611;SDS011;10465;42.686;23.364;2024-01-15T00:32:15;124.05;;;50.47;;
20611;SDS011;10465;42.686;23.364;2024-01-15T00:34:41;109.20;;;48.95;;
20611;SDS011;10465;42.686;23.364;2024-01-15T00:37:06;106.97;;;49.08;;
20611;SDS011;10465;42.686;23.364;2024-01-15T00:39:32;102.47;;;46.50;;
20611;SDS011;10465;42.686;23.364;2024-01-15T00:41:58;105.35;;;47.25;;
20611;SDS011;10465;42.686;23.364;2024-01-15T00:44:23;102.78;;;45.58;;
20611;SDS011;10465;42.686;23.364;2024-01-15T00:46:49;101.00;;;46.08;;
20611;SDS011;10465;42.686;23.364;2024-01-15T00:49:14;99.38;;;45.00;;
20611;SDS011;10465;42.686;23.364;2024-01-15T00:51:40;100.28;;;45.58;;
20611;SDS011;10465;42.686;23.364;2024-01-15T00:54:06;101.10;;;46.50;;
20611;SDS011;10465;42.686;23.364;2024-01-15T00:56:31;96.28;;;44.80;;
20611;SDS011;10465;42.686;23.364;2024-01-15T00:58:57;115.10;;;47.08;;
20611;SDS011;10465;42.686;23.364;2024-01-15T01:01:22;95.38;;;46.70;;
20611;SDS011;10465;42.686;23.364;2024-01-15T01:03:47;97.05;;;45.40;;
20611;SDS011;10465;42.686;23.364;2024-01-15T01:06:13;96.63;;;45.17;;
20611;SDS011;10465;42.686;23.364;2024-01-15T01:08:38;94.85;;;42.72;;
20611;SDS011;10465;42.686;23.364;2024-01-15T01:11:04;104.55;;;45.00;;
20611;SDS011;10465;42.686;23.364;2024-01-15T01:13:31;92.60;;;44.92;;
20611;SDS011;10465;42.686;23.364;2024-01-15T01:15:57;90.55;;;45.75;;
20611;SDS011;10465;42.686;23.364;2024-01-15T01:18:23;96.53;;;46.13;;
20611;SDS011;10465;42.686;23.364;2024-01-15T01:20:48;95.63;;;43.72;;
20611;SDS011;10465;42.686;23.364;2024-01-15T01:23:14;99.85;;;46.85;;
20611;SDS011;10465;42.686;23.364;2024-01-15T01:25:39;95.75;;;44.42;;
20611;SDS011;10465;42.686;23.364;2024-01-15T01:28:05;97.18;;;47.33;;
20611;SDS011;10465;42.686;23.364;2024-01-15T01:30:30;107.82;;;50.95;;
20611;SDS011;10465;42.686;23.364;2024-01-15T01:32:56;107.93;;;48.83;;
20611;SDS011;10465;42.686;23.364;2024-01-15T01:35:21;115.90;;;52.83;;
20611;SDS011;10465;42.686;23.364;2024-01-15T01:37:47;111.75;;;49.33;;
20611;SDS011;10465;42.686;23.364;2024-01-15T01:40:13;117.75;;;53.08;;
20611;SDS011;10465;42.686;23.364;2024-01-15T01:42:38;119.03;;;52.80;;
20611;SDS011;10465;42.686;23.364;2024-01-15T01:45:04;125.70;;;56.47;;
20611;SDS011;10465;42.686;23.364;2024-01-15T01:47:30;141.38;;;64.03;;
20611;SDS011;10465;42.686;23.364;2024-01-15T01:49:56;155.68;;;67.15;;
20611;SDS011;10465;42.686;23.364;2024-01-15T01:52:21;154.50;;;67.53;;
20611;SDS011;10465;42.686;23.364;2024-01-15T01:54:47;143.77;;;61.72;;
20611;SDS011;10465;42.686;23.364;2024-01-15T01:57:13;138.25;;;56.30;;
20611;SDS011;10465;42.686;23.364;2024-01-15T01:59:40;140.40;;;56.42;;
20611;SDS011;10465;42.686;23.364;2024-01-15T02:02:06;124.80;;;53.25;;
20611;SDS011;10465;42.686;23.364;2024-01-15T02:04:31;110.30;;;48.35;;
20611;SDS011;10465;42.686;23.364;2024-01-15T02:06:58;85.97;;;37.08;;
20611;SDS011;10465;42.686;23.364;2024-01-15T02:09:24;70.28;;;33.05;;
20611;SDS011;10465;42.686;23.364;2024-01-15T02:11:50;78.45;;;35.75;;
20611;SDS011;10465;42.686;23.364;2024-01-15T02:14:16;87.50;;;35.60;;
20611;SDS011;10465;42.686;23.364;2024-01-15T02:16:41;85.25;;;40.47;;
20611;SDS011;10465;42.686;23.364;2024-01-15T02:19:07;98.15;;;42.15;;
20611;SDS011;10465;42.686;23.364;2024-01-15T02:21:32;75.18;;;35.65;;
20611;SDS011;10465;42.686;23.364;2024-01-15T02:23:58;84.53;;;37.38;;
20611;SDS011;10465;42.686;23.364;2024-01-15T02:26:24;87.40;;;39.45;;
20611;SDS011;10465;42.686;23.364;2024-01-15T02:28:50;80.55;;;36.83;;
20611;SDS011;10465;42.686;23.364;2024-01-15T02:31:16;90.50;;;38.50;;
20611;SDS011;10465;42.686;23.364;2024-01-15T02:33:42;91.93;;;40.33;;
20611;SDS011;10465;42.686;23.364;2024-01-15T02:36:08;85.45;;;36.80;;
20611;SDS011;10465;42.686;23.364;2024-01-15T02:38:33;65.63;;;31.90;;
20611;SDS011;10465;42.686;23.364;2024-01-15T02:40:58;65.70;;;30.02;;
20611;SDS011;10465;42.686;23.364;2024-01-15T02:43:24;66.35;;;27.83;;
20611;SDS011;10465;42.686;23.364;2024-01-15T02:45:49;64.80;;;29.08;;
20611;SDS011;10465;42.686;23.364;2024-01-15T02:48:15;65.90;;;31.98;;
20611;SDS011;10465;42.686;23.364;2024-01-15T02:50:40;73.57;;;33.20;;
20611;SDS011;10465;42.686;23.364;2024-01-15T02:53:06;69.65;;;29.88;;
20611;SDS011;10465;42.686;23.364;2024-01-15T02:55:31;66.93;;;32.25;;
20611;SDS011;10465;42.686;23.364;2024-01-15T02:57:57;57.53;;;26.23;;
20611;SDS011;10465;42.686;23.364;2024-01-15T03:00:22;40.90;;;20.83;;
20611;SDS011;10465;42.686;23.364;2024-01-15T03:02:49;38.40;;;18.20;;
20611;SDS011;10465;42.686;23.364;2024-01-15T03:05:15;33.47;;;17.70;;
20611;SDS011;10465;42.686;23.364;2024-01-15T03:07:41;41.60;;;17.80;;
20611;SDS011;10465;42.686;23.364;2024-01-15T03:10:07;41.80;;;17.85;;
20611;SDS011;10465;42.686;23.364;2024-01-15T03:12:33;36.13;;;17.17;;
20611;SDS011;10465;42.686;23.364;2024-01-15T03:14:58;42.03;;;19.08;;
20611;SDS011;10465;42.686;23.364;2024-01-15T03:17:24;39.88;;;17.17;;
20611;SDS011;10465;42.686;23.364;2024-01-15T03:19:50;36.65;;;18.23;;
20611;SDS011;10465;42.686;23.364;2024-01-15T03:22:16;47.38;;;19.52;;
20611;SDS011;10465;42.686;23.364;2024-01-15T03:24:42;42.40;;;20.75;;
20611;SDS011;10465;42.686;23.364;2024-01-15T03:27:07;43.33;;;19.63;;
20611;SDS011;10465;42.686;23.364;2024-01-15T03:29:32;34.08;;;16.80;;
20611;SDS011;10465;42.686;23.364;2024-01-15T03:31:58;39.75;;;17.05;;
20611;SDS011;10465;42.686;23.364;2024-01-15T03:34:23;25.00;;;14.13;;
20611;SDS011;10465;42.686;23.364;2024-01-15T03:36:49;22.63;;;11.52;;
20611;SDS011;10465;42.686;23.364;2024-01-15T03:39:14;24.42;;;12.52;;
20611;SDS011;10465;42.686;23.364;2024-01-15T03:41:40;25.42;;;12.35;;
20611;SDS011;10465;42.686;23.364;2024-01-15T03:44:05;25.88;;;13.55;;
20611;SDS011;10465;42.686;23.364;2024-01-15T03:46:31;26.27;;;12.57;;
20611;SDS011;10465;42.686;23.364;2024-01-15T03:48:56;28.67;;;12.93;;
20611;SDS011;10465;42.686;23.364;2024-01-15T03:51:22;22.80;;;11.80;;
20611;SDS011;10465;42.686;23.364;2024-01-15T03:53:48;24.08;;;12.68;;
20611;SDS011;10465;42.686;23.364;2024-01-15T03:56:13;29.20;;;14.35;;
20611;SDS011;10465;42.686;23.364;2024-01-15T03:58:38;26.40;;;14.20;;
20611;SDS011;10465;42.686;23.364;2024-01-15T04:01:07;25.00;;;14.48;;
20611;SDS011;10465;42.686;23.364;2024-01-15T04:03:36;30.15;;;13.68;;
20611;SDS011;10465;42.686;23.364;2024-01-15T04:06:02;32.15;;;13.00;;
20611;SDS011;10465;42.686;23.364;2024-01-15T04:08:28;28.88;;;13.40;;
20611;SDS011;10465;42.686;23.364;2024-01-15T04:10:54;33.38;;;13.63;;
20611;SDS011;10465;42.686;23.364;2024-01-15T04:13:20;26.08;;;13.35;;
20611;SDS011;10465;42.686;23.364;2024-01-15T04:15:45;27.58;;;13.20;;
20611;SDS011;10465;42.686;23.364;2024-01-15T04:18:11;29.85;;;14.77;;
20611;SDS011;10465;42.686;23.364;2024-01-15T04:20:36;30.52;;;14.02;;
20611;SDS011;10465;42.686;23.364;2024-01-15T04:23:02;27.63;;;13.48;;
20611;SDS011;10465;42.686;23.364;2024-01-15T04:25:27;29.17;;;14.00;;
20611;SDS011;10465;42.686;23.364;2024-01-15T04:27:53;33.90;;;14.18;;
20611;SDS011;10465;42.686;23.364;2024-01-15T04:30:18;22.65;;;13.65;;
20611;SDS011;10465;42.686;23.364;2024-01-15T04:32:44;25.75;;;13.50;;
20611;SDS011;10465;42.686;23.364;2024-01-15T04:35:09;31.85;;;14.57;;
20611;SDS011;10465;42.686;23.364;2024-01-15T04:37:34;34.53;;;16.33;;
20611;SDS011;10465;42.686;23.364;2024-01-15T04:40:00;39.33;;;14.40;;
20611;SDS011;10465;42.686;23.364;2024-01-15T04:42:25;31.20;;;14.43;;
20611;SDS011;10465;42.686;23.364;2024-01-15T04:44:51;27.85;;;14.20;;
20611;SDS011;10465;42.686;23.364;2024-01-15T04:47:16;32.45;;;15.23;;
20611;SDS011;10465;42.686;23.364;2024-01-15T04:49:42;37.80;;;17.10;;
20611;SDS011;10465;42.686;23.364;2024-01-15T04:52:07;38.08;;;18.17;;
20611;SDS011;10465;42.686;23.364;2024-01-15T04:54:35;37.38;;;17.60;;
20611;SDS011;10465;42.686;23.364;2024-01-15T04:57:01;41.80;;;18.63;;
20611;SDS011;10465;42.686;23.364;2024-01-15T04:59:27;45.72;;;18.95;;
20611;SDS011;10465;42.686;23.364;2024-01-15T05:01:53;37.55;;;16.75;;
20611;SDS011;10465;42.686;23.364;2024-01-15T05:04:18;37.85;;;17.60;;
20611;SDS011;10465;42.686;23.364;2024-01-15T05:06:44;30.85;;;15.88;;
20611;SDS011;10465;42.686;23.364;2024-01-15T05:09:09;38.72;;;17.42;;
20611;SDS011;10465;42.686;23.364;2024-01-15T05:11:34;42.38;;;17.75;;
20611;SDS011;10465;42.686;23.364;2024-01-15T05:14:00;39.03;;;16.85;;
20611;SDS011;10465;42.686;23.364;2024-01-15T05:16:25;39.95;;;15.43;;
20611;SDS011;10465;42.686;23.364;2024-01-15T05:18:51;36.05;;;16.45;;
20611;SDS011;10465;42.686;23.364;2024-01-15T05:21:16;34.22;;;17.42;;
20611;SDS011;10465;42.686;23.364;2024-01-15T05:23:42;41.08;;;19.00;;
20611;SDS011;10465;42.686;23.364;2024-01-15T05:26:07;40.03;;;19.00;;
20611;SDS011;10465;42.686;23.364;2024-01-15T05:28:34;37.88;;;19.60;;
20611;SDS011;10465;42.686;23.364;2024-01-15T05:30:59;36.25;;;18.95;;
20611;SDS011;10465;42.686;23.364;2024-01-15T05:33:25;42.20;;;19.60;;
20611;SDS011;10465;42.686;23.364;2024-01-15T05:35:51;44.30;;;19.00;;
20611;SDS011;10465;42.686;23.364;2024-01-15T05:38:17;41.42;;;20.02;;
20611;SDS011;10465;42.686;23.364;2024-01-15T05:40:42;43.65;;;20.25;;
20611;SDS011;10465;42.686;23.364;2024-01-15T05:43:08;37.10;;;19.20;;
20611;SDS011;10465;42.686;23.364;2024-01-15T05:45:34;34.60;;;16.60;;
20611;SDS011;10465;42.686;23.364;2024-01-15T05:48:00;36.33;;;17.88;;
20611;SDS011;10465;42.686;23.364;2024-01-15T05:50:26;46.80;;;20.05;;
20611;SDS011;10465;42.686;23.364;2024-01-15T05:52:51;43.47;;;20.27;;
20611;SDS011;10465;42.686;23.364;2024-01-15T05:55:17;42.03;;;19.50;;
20611;SDS011;10465;42.686;23.364;2024-01-15T05:57:43;36.88;;;19.58;;
20611;SDS011;10465;42.686;23.364;2024-01-15T06:00:09;36.95;;;19.45;;
20611;SDS011;10465;42.686;23.364;2024-01-15T06:02:36;44.83;;;20.55;;
20611;SDS011;10465;42.686;23.364;2024-01-15T06:05:02;43.97;;;19.90;;
20611;SDS011;10465;42.686;23.364;2024-01-15T06:07:28;39.47;;;18.92;;
20611;SDS011;10465;42.686;23.364;2024-01-15T06:09:53;36.40;;;19.40;;
20611;SDS011;10465;42.686;23.364;2024-01-15T06:12:19;41.22;;;19.48;;
20611;SDS011;10465;42.686;23.364;2024-01-15T06:14:44;40.80;;;19.48;;
20611;SDS011;10465;42.686;23.364;2024-01-15T06:17:10;43.25;;;20.17;;
20611;SDS011;10465;42.686;23.364;2024-01-15T06:19:35;39.22;;;18.38;;
20611;SDS011;10465;42.686;23.364;2024-01-15T06:22:01;45.75;;;20.35;;
20611;SDS011;10465;42.686;23.364;2024-01-15T06:24:27;33.47;;;19.05;;
20611;SDS011;10465;42.686;23.364;2024-01-15T06:26:52;43.10;;;19.65;;
20611;SDS011;10465;42.686;23.364;2024-01-15T06:29:18;39.78;;;20.27;;
20611;SDS011;10465;42.686;23.364;2024-01-15T06:31:43;38.55;;;19.45;;
20611;SDS011;10465;42.686;23.364;2024-01-15T06:34:09;39.90;;;20.95;;
20611;SDS011;10465;42.686;23.364;2024-01-15T06:36:34;39.85;;;21.48;;
20611;SDS011;10465;42.686;23.364;2024-01-15T06:39:00;46.83;;;22.65;;
20611;SDS011;10465;42.686;23.364;2024-01-15T06:41:25;47.30;;;23.55;;
20611;SDS011;10465;42.686;23.364;2024-01-15T06:43:51;54.03;;;24.85;;
20611;SDS011;10465;42.686;23.364;2024-01-15T06:46:22;41.72;;;22.05;;
20611;SDS011;10465;42.686;23.364;2024-01-15T06:48:48;50.13;;;23.02;;
20611;SDS011;10465;42.686;23.364;2024-01-15T06:51:15;47.63;;;24.08;;
20611;SDS011;10465;42.686;23.364;2024-01-15T06:53:41;52.47;;;23.75;;
20611;SDS011;10465;42.686;23.364;2024-01-15T06:56:07;44.45;;;23.40;;
20611;SDS011;10465;42.686;23.364;2024-01-15T06:58:32;49.22;;;24.40;;
20611;SDS011;10465;42.686;23.364;2024-01-15T07:00:58;48.25;;;24.17;;
20611;SDS011;10465;42.686;23.364;2024-01-15T07:03:23;44.50;;;23.60;;
20611;SDS011;10465;42.686;23.364;2024-01-15T07:05:49;53.85;;;25.15;;
20611;SDS011;10465;42.686;23.364;2024-01-15T07:08:15;51.03;;;26.05;;
20611;SDS011;10465;42.686;23.364;2024-01-15T07:10:40;45.35;;;24.90;;
20611;SDS011;10465;42.686;23.364;2024-01-15T07:13:06;45.55;;;24.80;;
20611;SDS011;10465;42.686;23.364;2024-01-15T07:15:31;57.88;;;26.15;;
20611;SDS011;10465;42.686;23.364;2024-01-15T07:17:57;49.08;;;26.75;;
20611;SDS011;10465;42.686;23.364;2024-01-15T07:20:22;55.20;;;26.10;;
20611;SDS011;10465;42.686;23.364;2024-01-15T07:22:47;48.42;;;24.75;;
20611;SDS011;10465;42.686;23.364;2024-01-15T07:25:13;57.20;;;25.08;;
20611;SDS011;10465;42.686;23.364;2024-01-15T07:27:38;53.70;;;25.83;;
20611;SDS011;10465;42.686;23.364;2024-01-15T07:30:04;49.55;;;24.85;;
20611;SDS011;10465;42.686;23.364;2024-01-15T07:32:31;52.67;;;24.13;;
20611;SDS011;10465;42.686;23.364;2024-01-15T07:34:57;51.45;;;25.20;;
20611;SDS011;10465;42.686;23.364;2024-01-15T07:37:24;56.42;;;28.92;;
20611;SDS011;10465;42.686;23.364;2024-01-15T07:39:49;62.33;;;32.50;;
20611;SDS011;10465;42.686;23.364;2024-01-15T07:42:15;71.53;;;34.78;;
20611;SDS011;10465;42.686;23.364;2024-01-15T07:44:41;75.38;;;36.47;;
20611;SDS011;10465;42.686;23.364;2024-01-15T07:47:06;71.43;;;35.40;;
20611;SDS011;10465;42.686;23.364;2024-01-15T07:49:33;67.47;;;36.80;;
20611;SDS011;10465;42.686;23.364;2024-01-15T07:51:59;90.97;;;42.65;;
20611;SDS011;10465;42.686;23.364;2024-01-15T07:54:25;85.00;;;43.95;;
20611;SDS011;10465;42.686;23.364;2024-01-15T07:56:54;119.57;;;57.60;;
20611;SDS011;10465;42.686;23.364;2024-01-15T07:59:21;131.75;;;65.10;;
20611;SDS011;10465;42.686;23.364;2024-01-15T08:01:46;124.80;;;58.85;;
20611;SDS011;10465;42.686;23.364;2024-01-15T08:04:12;128.93;;;61.13;;
20611;SDS011;10465;42.686;23.364;2024-01-15T08:06:38;144.23;;;72.25;;
20611;SDS011;10465;42.686;23.364;2024-01-15T08:09:03;172.55;;;82.18;;
20611;SDS011;10465;42.686;23.364;2024-01-15T08:11:29;168.85;;;76.47;;
20611;SDS011;10465;42.686;23.364;2024-01-15T08:13:55;132.85;;;61.97;;
20611;SDS011;10465;42.686;23.364;2024-01-15T08:16:21;131.25;;;62.33;;
20611;SDS011;10465;42.686;23.364;2024-01-15T08:18:47;125.32;;;61.78;;
20611;SDS011;10465;42.686;23.364;2024-01-15T08:21:12;111.78;;;55.13;;
20611;SDS011;10465;42.686;23.364;2024-01-15T08:23:38;106.05;;;51.70;;
20611;SDS011;10465;42.686;23.364;2024-01-15T08:26:04;104.55;;;52.88;;
20611;SDS011;10465;42.686;23.364;2024-01-15T08:28:29;95.22;;;48.22;;
20611;SDS011;10465;42.686;23.364;2024-01-15T08:30:55;111.40;;;52.38;;
20611;SDS011;10465;42.686;23.364;2024-01-15T08:33:21;106.63;;;52.78;;
20611;SDS011;10465;42.686;23.364;2024-01-15T08:35:46;106.40;;;53.15;;
20611;SDS011;10465;42.686;23.364;2024-01-15T08:38:12;103.22;;;51.42;;
20611;SDS011;10465;42.686;23.364;2024-01-15T08:40:37;96.80;;;47.63;;
20611;SDS011;10465;42.686;23.364;2024-01-15T08:43:02;96.63;;;47.05;;
20611;SDS011;10465;42.686;23.364;2024-01-15T08:45:28;87.30;;;45.22;;
20611;SDS011;10465;42.686;23.364;2024-01-15T08:47:54;89.03;;;42.20;;
20611;SDS011;10465;42.686;23.364;2024-01-15T08:50:19;90.15;;;45.03;;
20611;SDS011;10465;42.686;23.364;2024-01-15T08:52:44;94.13;;;44.42;;
20611;SDS011;10465;42.686;23.364;2024-01-15T08:55:11;79.75;;;39.75;;
20611;SDS011;10465;42.686;23.364;2024-01-15T08:57:38;70.00;;;38.05;;
20611;SDS011;10465;42.686;23.364;2024-01-15T09:00:03;69.88;;;35.92;;
20611;SDS011;10465;42.686;23.364;2024-01-15T09:02:35;74.45;;;37.78;;
20611;SDS011;10465;42.686;23.364;2024-01-15T09:05:01;62.35;;;32.95;;
20611;SDS011;10465;42.686;23.364;2024-01-15T09:07:26;50.78;;;29.27;;
20611;SDS011;10465;42.686;23.364;2024-01-15T09:09:53;39.45;;;19.85;;
20611;SDS011;10465;42.686;23.364;2024-01-15T09:12:18;43.10;;;21.42;;
20611;SDS011;10465;42.686;23.364;2024-01-15T09:14:46;43.00;;;23.30;;
20611;SDS011;10465;42.686;23.364;2024-01-15T09:17:12;45.08;;;23.75;;
20611;SDS011;10465;42.686;23.364;2024-01-15T09:19:37;44.33;;;24.85;;
20611;SDS011;10465;42.686;23.364;2024-01-15T09:22:05;52.03;;;25.90;;
20611;SDS011;10465;42.686;23.364;2024-01-15T09:24:30;45.78;;;25.33;;
20611;SDS011;10465;42.686;23.364;2024-01-15T09:26:56;46.70;;;24.42;;
20611;SDS011;10465;42.686;23.364;2024-01-15T09:29:21;51.25;;;25.70;;
20611;SDS011;10465;42.686;23.364;2024-01-15T09:31:48;48.15;;;26.05;;
20611;SDS011;10465;42.686;23.364;2024-01-15T09:34:15;41.45;;;21.88;;
20611;SDS011;10465;42.686;23.364;2024-01-15T09:36:41;46.63;;;19.95;;
20611;SDS011;10465;42.686;23.364;2024-01-15T09:39:09;39.15;;;20.60;;
20611;SDS011;10465;42.686;23.364;2024-01-15T09:41:36;46.05;;;23.20;;
20611;SDS011;10465;42.686;23.364;2024-01-15T09:44:05;44.53;;;20.48;;
20611;SDS011;10465;42.686;23.364;2024-01-15T09:46:34;41.03;;;22.23;;
20611;SDS011;10465;42.686;23.364;2024-01-15T09:49:00;35.10;;;19.42;;
20611;SDS011;10465;42.686;23.364;2024-01-15T09:51:27;46.10;;;20.92;;
20611;SDS011;10465;42.686;23.364;2024-01-15T09:53:56;44.10;;;20.75;;
20611;SDS011;10465;42.686;23.364;2024-01-15T09:56:23;38.00;;;20.65;;
20611;SDS011;10465;42.686;23.364;2024-01-15T09:58:49;44.45;;;21.35;;
20611;SDS011;10465;42.686;23.364;2024-01-15T10:01:16;48.97;;;22.98;;
20611;SDS011;10465;42.686;23.364;2024-01-15T10:03:42;52.58;;;23.65;;
20611;SDS011;10465;42.686;23.364;2024-01-15T10:06:07;41.75;;;22.98;;
20611;SDS011;10465;42.686;23.364;2024-01-15T10:08:34;58.30;;;25.52;;
20611;SDS011;10465;42.686;23.364;2024-01-15T10:11:02;48.80;;;25.73;;
20611;SDS011;10465;42.686;23.364;2024-01-15T10:13:29;53.88;;;27.60;;
20611;SDS011;10465;42.686;23.364;2024-01-15T10:15:55;55.67;;;27.95;;
20611;SDS011;10465;42.686;23.364;2024-01-15T10:18:21;53.72;;;26.45;;
20611;SDS011;10465;42.686;23.364;2024-01-15T10:20:46;59.60;;;27.52;;
20611;SDS011;10465;42.686;23.364;2024-01-15T10:23:13;57.70;;;28.25;;
20611;SDS011;10465;42.686;23.364;2024-01-15T10:25:40;52.53;;;26.13;;
20611;SDS011;10465;42.686;23.364;2024-01-15T10:28:07;54.25;;;27.33;;
20611;SDS011;10465;42.686;23.364;2024-01-15T10:30:33;53.75;;;26.42;;
20611;SDS011;10465;42.686;23.364;2024-01-15T10:33:02;48.78;;;25.80;;
20611;SDS011;10465;42.686;23.364;2024-01-15T10:35:29;54.28;;;24.38;;
20611;SDS011;10465;42.686;23.364;2024-01-15T10:37:55;46.83;;;24.05;;
20611;SDS011;10465;42.686;23.364;2024-01-15T10:40:21;46.92;;;24.55;;
20611;SDS011;10465;42.686;23.364;2024-01-15T10:42:47;37.50;;;22.08;;
20611;SDS011;10465;42.686;23.364;2024-01-15T10:45:13;51.85;;;25.13;;
20611;SDS011;10465;42.686;23.364;2024-01-15T10:47:39;45.67;;;24.35;;
20611;SDS011;10465;42.686;23.364;2024-01-15T10:50:05;47.13;;;24.23;;
20611;SDS011;10465;42.686;23.364;2024-01-15T10:52:33;47.05;;;24.58;;
20611;SDS011;10465;42.686;23.364;2024-01-15T10:55:00;47.67;;;23.50;;
20611;SDS011;10465;42.686;23.364;2024-01-15T10:57:27;49.55;;;21.83;;
20611;SDS011;10465;42.686;23.364;2024-01-15T10:59:53;43.08;;;21.58;;
20611;SDS011;10465;42.686;23.364;2024-01-15T11:02:19;44.90;;;19.55;;
20611;SDS011;10465;42.686;23.364;2024-01-15T11:04:45;32.15;;;16.92;;
20611;SDS011;10465;42.686;23.364;2024-01-15T11:07:10;33.25;;;15.82;;
20611;SDS011;10465;42.686;23.364;2024-01-15T11:09:37;35.13;;;17.42;;
20611;SDS011;10465;42.686;23.364;2024-01-15T11:12:15;26.67;;;14.10;;
20611;SDS011;10465;42.686;23.364;2024-01-15T11:14:45;32.53;;;16.73;;
20611;SDS011;10465;42.686;23.364;2024-01-15T11:17:12;36.33;;;19.85;;
20611;SDS011;10465;42.686;23.364;2024-01-15T11:22:10;37.55;;;20.30;;
20611;SDS011;10465;42.686;23.364;2024-01-15T11:25:02;41.38;;;20.60;;
20611;SDS011;10465;42.686;23.364;2024-01-15T11:30:10;36.17;;;18.75;;
20611;SDS011;10465;42.686;23.364;2024-01-15T11:32:37;38.85;;;19.30;;
20611;SDS011;10465;42.686;23.364;2024-01-15T11:35:06;44.58;;;19.10;;
20611;SDS011;10465;42.686;23.364;2024-01-15T11:40:20;42.35;;;20.90;;
20611;SDS011;10465;42.686;23.364;2024-01-15T11:43:03;41.55;;;20.70;;
20611;SDS011;10465;42.686;23.364;2024-01-15T11:45:29;42.80;;;20.33;;
20611;SDS011;10465;42.686;23.364;2024-01-15T11:48:16;37.50;;;18.83;;
20611;SDS011;10465;42.686;23.364;2024-01-15T11:53:16;36.90;;;17.67;;
20611;SDS011;10465;42.686;23.364;2024-01-15T11:55:44;36.33;;;17.70;;
20611;SDS011;10465;42.686;23.364;2024-01-15T11:58:10;38.13;;;19.42;;
20611;SDS011;10465;42.686;23.364;2024-01-15T12:00:40;38.08;;;18.17;;
20611;SDS011;10465;42.686;23.364;2024-01-15T12:03:09;38.75;;;17.80;;
20611;SDS011;10465;42.686;23.364;2024-01-15T12:05:36;39.38;;;18.38;;
20611;SDS011;10465;42.686;23.364;2024-01-15T12:08:02;37.33;;;17.55;;
20611;SDS011;10465;42.686;23.364;2024-01-15T12:10:28;30.58;;;16.42;;
20611;SDS011;10465;42.686;23.364;2024-01-15T12:15:24;33.78;;;16.88;;
20611;SDS011;10465;42.686;23.364;2024-01-15T12:17:51;34.35;;;17.02;;
20611;SDS011;10465;42.686;23.364;2024-01-15T12:20:17;30.35;;;16.60;;
20611;SDS011;10465;42.686;23.364;2024-01-15T12:22:43;37.10;;;16.25;;
20611;SDS011;10465;42.686;23.364;2024-01-15T12:25:09;34.58;;;16.02;;
20611;SDS011;10465;42.686;23.364;2024-01-15T12:27:35;36.92;;;16.10;;
20611;SDS011;10465;42.686;23.364;2024-01-15T12:30:01;29.75;;;16.25;;
20611;SDS011;10465;42.686;23.364;2024-01-15T12:32:26;32.78;;;17.65;;
20611;SDS011;10465;42.686;23.364;2024-01-15T12:34:52;36.67;;;18.13;;
20611;SDS011;10465;42.686;23.364;2024-01-15T12:37:18;40.45;;;20.48;;
20611;SDS011;10465;42.686;23.364;2024-01-15T12:39:44;35.30;;;20.08;;
20611;SDS011;10465;42.686;23.364;2024-01-15T12:42:10;41.28;;;20.15;;
20611;SDS011;10465;42.686;23.364;2024-01-15T12:44:36;37.08;;;20.52;;
20611;SDS011;10465;42.686;23.364;2024-01-15T12:47:03;32.25;;;18.63;;
20611;SDS011;10465;42.686;23.364;2024-01-15T12:49:29;40.33;;;18.15;;
20611;SDS011;10465;42.686;23.364;2024-01-15T12:51:58;35.65;;;19.48;;
20611;SDS011;10465;42.686;23.364;2024-01-15T12:54:24;37.50;;;20.02;;
20611;SDS011;10465;42.686;23.364;2024-01-15T12:56:50;33.75;;;17.60;;
20611;SDS011;10465;42.686;23.364;2024-01-15T12:59:17;35.38;;;18.58;;
20611;SDS011;10465;42.686;23.364;2024-01-15T13:01:43;34.80;;;17.48;;
20611;SDS011;10465;42.686;23.364;2024-01-15T13:04:09;35.97;;;17.90;;
20611;SDS011;10465;42.686;23.364;2024-01-15T13:06:34;35.20;;;17.20;;
20611;SDS011;10465;42.686;23.364;2024-01-15T13:09:00;36.00;;;18.45;;
20611;SDS011;10465;42.686;23.364;2024-01-15T13:11:26;35.33;;;17.77;;
20611;SDS011;10465;42.686;23.364;2024-01-15T13:13:52;33.58;;;17.48;;
20611;SDS011;10465;42.686;23.364;2024-01-15T13:16:18;36.15;;;17.20;;
20611;SDS011;10465;42.686;23.364;2024-01-15T13:18:46;31.00;;;17.27;;
20611;SDS011;10465;42.686;23.364;2024-01-15T13:21:11;30.00;;;17.58;;
20611;SDS011;10465;42.686;23.364;2024-01-15T13:23:37;38.25;;;18.48;;
20611;SDS011;10465;42.686;23.364;2024-01-15T13:26:03;33.08;;;18.02;;
20611;SDS011;10465;42.686;23.364;2024-01-15T13:28:29;33.10;;;17.05;;
20611;SDS011;10465;42.686;23.364;2024-01-15T13:30:55;40.25;;;20.30;;
20611;SDS011;10465;42.686;23.364;2024-01-15T13:33:20;33.85;;;18.52;;
20611;SDS011;10465;42.686;23.364;2024-01-15T13:35:45;35.65;;;18.83;;
20611;SDS011;10465;42.686;23.364;2024-01-15T13:38:14;36.35;;;17.88;;
20611;SDS011;10465;42.686;23.364;2024-01-15T13:40:40;36.75;;;17.02;;
20611;SDS011;10465;42.686;23.364;2024-01-15T13:43:05;37.30;;;17.10;;
20611;SDS011;10465;42.686;23.364;2024-01-15T13:45:33;35.45;;;17.55;;
20611;SDS011;10465;42.686;23.364;2024-01-15T13:48:02;31.08;;;17.73;;
20611;SDS011;10465;42.686;23.364;2024-01-15T13:50:30;35.08;;;17.20;;
20611;SDS011;10465;42.686;23.364;2024-01-15T13:52:56;34.90;;;16.52;;
20611;SDS011;10465;42.686;23.364;2024-01-15T13:55:22;33.17;;;17.30;;
20611;SDS011;10465;42.686;23.364;2024-01-15T13:57:47;29.77;;;16.60;;
20611;SDS011;10465;42.686;23.364;2024-01-15T14:00:13;31.27;;;17.50;;
20611;SDS011;10465;42.686;23.364;2024-01-15T14:02:43;33.50;;;16.88;;
20611;SDS011;10465;42.686;23.364;2024-01-15T14:05:09;31.50;;;15.77;;
20611;SDS011;10465;42.686;23.364;2024-01-15T14:07:37;29.73;;;16.13;;
20611;SDS011;10465;42.686;23.364;2024-01-15T14:10:04;33.30;;;16.67;;
20611;SDS011;10465;42.686;23.364;2024-01-15T14:12:30;37.67;;;16.45;;